Time;durP1;ratioP1;P1;durP2;ratioP2;P2;SDS_P1;SDS_P2;PMS_P1;PMS_P2;Temp;Humidity;BMP_temperature;BMP_pressure;BME280_temperature;BME280_humidity;BME280_pressure;Samples;Min_cycle;Max_cycle;Signal;HPM_P1;HPM_P2
2022/03/21 00:00:38;;;;;;;;;;;;;;;6.73;38.60;102784.77;1729535;80;21167;-85
2022/03/21 00:03:09;;;;;;;;;;;;;;;6.71;38.67;102787.05;1745457;80;20512;-88
2022/03/21 00:05:34;;;;;;;;;;;;;;;6.57;39.49;102788.95;1740150;80;20155;-84
2022/03/21 00:08:00;;;;;;;;;;;;;;;6.55;39.28;102784.23;1738005;80;20692;-85
2022/03/21 00:10:26;;;;;;;;;;;;;;;6.59;38.79;102782.73;1737868;80;20156;-87
2022/03/21 00:12:51;;;;;;;;;;;;;;;6.64;38.90;102785.16;1739946;81;21020;-91
2022/03/21 00:15:18;;;;;;;;;;;;;;;6.57;39.66;102790.27;1736688;80;20285;-88
2022/03/21 00:17:44;;;;;;;;;;;;;;;6.59;39.69;102783.20;1745661;80;20931;-89
2022/03/21 00:20:12;;;;;;;;;;;;;;;6.45;40.31;102787.24;1742789;80;20126;-92
2022/03/21 00:22:37;;;;;;;;;;;;;;;6.32;40.88;102787.34;1746752;80;20594;-84
2022/03/21 00:25:05;;;;;;;;;;;;;;;6.46;39.66;102791.59;1736184;80;21089;-84
2022/03/21 00:27:32;;;;;;;;;;;;;;;6.35;40.25;102789.00;1744253;81;20137;-90
2022/03/21 00:29:58;;;;;;;;;;;;;;;6.21;40.66;102786.94;1738567;80;20693;-93
2022/03/21 00:32:23;;;;;;;;;;;;;;;6.29;39.81;102784.84;1738193;81;20142;-92
2022/03/21 00:34:49;;;;;;;;;;;;;;;6.38;39.69;102789.72;1736666;80;20193;-86
2022/03/21 00:37:15;;;;;;;;;;;;;;;6.41;39.47;102784.34;1741382;80;21090;-91
2022/03/21 00:39:41;;;;;;;;;;;;;;;6.47;39.14;102790.65;1733467;80;20738;-93
2022/03/21 00:42:09;;;;;;;;;;;;;;;6.47;39.18;102788.02;1736248;80;20170;-89
2022/03/21 00:44:34;;;;;;;;;;;;;;;6.51;39.06;102786.58;1721407;81;20129;-85
2022/03/21 00:47:00;;;;;;;;;;;;;;;6.49;39.16;102789.74;1723149;82;20214;-93
2022/03/21 00:49:25;;;;;;;;;;;;;;;6.50;38.71;102783.58;1714670;82;21099;-95
2022/03/21 00:51:51;;;;;;;;;;;;;;;6.52;38.62;102784.36;1722853;81;20164;-92
2022/03/21 00:54:17;;;;;;;;;;;;;;;6.54;38.98;102783.83;1719842;82;20143;-84
2022/03/21 00:56:42;;;;;;;;;;;;;;;6.59;38.81;102776.63;1713300;82;20150;-95
2022/03/21 00:59:08;;;;;;;;;;;;;;;6.61;38.85;102782.66;1721015;82;20202;-94
2022/03/21 01:01:33;;;;;;;;;;;;;;;6.63;39.02;102778.19;1718262;82;21077;-86
2022/03/21 01:03:59;;;;;;;;;;;;;;;6.64;39.18;102781.22;1719442;82;20767;-87
2022/03/21 01:06:25;;;;;;;;;;;;;;;6.65;39.00;102776.38;1720585;82;20186;-96
2022/03/21 01:08:50;;;;;;;;;;;;;;;6.66;38.88;102776.75;1716997;82;20154;-85
2022/03/21 01:11:16;;;;;;;;;;;;;;;6.67;39.07;102779.78;1718569;82;20147;-88
2022/03/21 01:13:42;;;;;;;;;;;;;;;6.68;39.09;102777.55;1723158;82;21394;-90
2022/03/21 01:16:09;;;;;;;;;;;;;;;6.69;38.94;102783.18;1715472;82;20556;-92
2022/03/21 01:18:34;;;;;;;;;;;;;;;6.68;38.97;102776.24;1724911;82;20182;-92
2022/03/21 01:21:00;;;;;;;;;;;;;;;6.70;38.83;102779.64;1719712;82;20145;-88
2022/03/21 01:23:25;;;;;;;;;;;;;;;6.66;39.21;102778.06;1720339;82;20158;-85
2022/03/21 01:25:51;;;;;;;;;;;;;;;6.67;38.81;102771.90;1715774;82;21241;-83
2022/03/21 01:28:17;;;;;;;;;;;;;;;6.68;38.87;102770.11;1724324;82;20170;-87
2022/03/21 01:30:42;;;;;;;;;;;;;;;6.68;38.77;102765.73;1713989;82;20211;-94
2022/03/21 01:33:08;;;;;;;;;;;;;;;6.69;38.84;102764.80;1718724;82;20469;-93
2022/03/21 01:35:34;;;;;;;;;;;;;;;6.71;38.49;102758.17;1716414;82;20144;-91
2022/03/21 01:37:59;;;;;;;;;;;;;;;6.72;38.33;102757.26;1718213;82;21073;-94
2022/03/21 01:40:25;;;;;;;;;;;;;;;6.66;38.50;102759.67;1718792;82;21130;-92
2022/03/21 01:42:50;;;;;;;;;;;;;;;6.64;38.48;102754.49;1722259;82;20144;-92
2022/03/21 01:45:17;;;;;;;;;;;;;;;6.64;38.63;102753.65;1718479;82;20218;-92
2022/03/21 01:47:43;;;;;;;;;;;;;;;6.64;38.90;102757.59;1721583;82;20220;-93
2022/03/21 01:50:08;;;;;;;;;;;;;;;6.63;39.48;102750.19;1719806;82;21160;-92
2022/03/21 01:52:36;;;;;;;;;;;;;;;6.58;39.41;102751.28;1716995;82;20284;-90
2022/03/21 01:57:46;;;;;;;;;;;;;;;6.57;39.84;102746.95;1718114;82;20184;-92
2022/03/21 02:00:12;;;;;;;;;;;;;;;6.61;39.13;102749.84;1722418;81;21208;-93
2022/03/21 02:02:37;;;;;;;;;;;;;;;6.62;39.59;102746.31;1725525;82;21971;-84
2022/03/21 02:05:04;;;;;;;;;;;;;;;6.63;39.78;102746.69;1721125;82;20161;-92
2022/03/21 02:07:29;;;;;;;;;;;;;;;6.61;40.22;102745.91;1721302;82;20145;-96
2022/03/21 02:09:55;;;;;;;;;;;;;;;6.62;39.70;102745.00;1721210;82;20141;-84
2022/03/21 02:12:21;;;;;;;;;;;;;;;6.62;39.47;102745.00;1720103;82;20143;-93
2022/03/21 02:14:47;;;;;;;;;;;;;;;6.63;39.43;102755.43;1717182;81;20505;-90
2022/03/21 02:17:18;;;;;;;;;;;;;;;6.63;39.73;102751.93;1722022;82;20197;-95
2022/03/21 02:19:44;;;;;;;;;;;;;;;6.62;39.90;102755.50;1719974;82;20516;-84
2022/03/21 02:22:40;;;;;;;;;;;;;;;6.63;39.86;102756.75;1720328;82;20150;-93
2022/03/21 02:25:29;;;;;;;;;;;;;;;6.64;39.97;102761.53;1713630;82;20159;-92
2022/03/21 02:27:58;;;;;;;;;;;;;;;6.59;40.07;102751.69;1721415;82;21208;-88
2022/03/21 02:30:28;;;;;;;;;;;;;;;6.59;39.98;102753.84;1716289;81;20137;-84
2022/03/21 02:32:55;;;;;;;;;;;;;;;6.59;40.02;102749.06;1721691;82;20159;-85
2022/03/21 02:35:21;;;;;;;;;;;;;;;6.60;39.92;102748.13;1719079;82;20348;-85
2022/03/21 02:37:47;;;;;;;;;;;;;;;6.61;39.95;102747.22;1717631;82;20149;-87
2022/03/21 02:40:12;;;;;;;;;;;;;;;6.61;39.98;102758.56;1720764;82;21188;-91
2022/03/21 02:42:38;;;;;;;;;;;;;;;6.58;40.30;102753.91;1715651;82;20285;-82
2022/03/21 02:45:04;;;;;;;;;;;;;;;6.56;40.29;102756.61;1728931;80;20154;-90
2022/03/21 02:47:30;;;;;;;;;;;;;;;6.51;40.64;102753.33;1730229;81;20177;-92
2022/03/21 02:49:56;;;;;;;;;;;;;;;6.63;40.48;102751.93;1723252;81;20129;-83
2022/03/21 02:52:21;;;;;;;;;;;;;;;6.70;40.48;102756.48;1711043;82;21122;-89
2022/03/21 02:54:47;;;;;;;;;;;;;;;6.69;40.51;102755.61;1731230;81;20527;-89
2022/03/21 02:57:12;;;;;;;;;;;;;;;6.62;40.78;102752.41;1732924;82;20135;-85
2022/03/21 02:59:38;;;;;;;;;;;;;;;6.63;40.81;102757.19;1729852;81;20133;-90
2022/03/21 03:02:05;;;;;;;;;;;;;;;6.62;40.97;102756.81;1731971;81;20717;-90
2022/03/21 03:04:31;;;;;;;;;;;;;;;6.72;40.73;102757.26;1729312;81;21111;-85
2022/03/21 03:06:56;;;;;;;;;;;;;;;6.70;40.94;102759.11;1728501;81;20220;-86
2022/03/21 03:09:26;;;;;;;;;;;;;;;6.70;41.19;102756.02;1733034;81;20150;-84
2022/03/21 03:11:51;;;;;;;;;;;;;;;6.57;41.57;102752.20;1727184;81;20111;-93
2022/03/21 03:14:17;;;;;;;;;;;;;;;6.52;41.63;102748.92;1731767;81;20146;-90
2022/03/21 03:16:43;;;;;;;;;;;;;;;6.49;42.09;102749.05;1730439;81;21209;-94
2022/03/21 03:19:08;;;;;;;;;;;;;;;6.46;41.83;102744.78;1731661;81;20372;-88
2022/03/21 03:21:36;;;;;;;;;;;;;;;6.47;41.93;102749.12;1729702;80;20093;-83
2022/03/21 03:24:02;;;;;;;;;;;;;;;6.35;42.47;102747.85;1735540;79;20154;-83
2022/03/21 03:26:27;;;;;;;;;;;;;;;6.29;43.01;102745.48;1730347;79;20179;-81
2022/03/21 03:28:53;;;;;;;;;;;;;;;6.31;42.94;102748.05;1733892;80;21048;-83
2022/03/21 03:31:20;;;;;;;;;;;;;;;6.20;43.20;102748.48;1727616;79;20575;-84
2022/03/21 03:33:46;;;;;;;;;;;;;;;5.95;44.17;102744.23;1738578;79;20056;-81
2022/03/21 03:36:15;;;;;;;;;;;;;;;5.80;44.41;102744.85;1735297;80;20235;-82
2022/03/21 03:38:42;;;;;;;;;;;;;;;5.77;44.43;102741.89;1732394;79;20298;-85
2022/03/21 03:41:10;;;;;;;;;;;;;;;5.84;43.94;102741.17;1729599;79;21108;-84
2022/03/21 03:43:35;;;;;;;;;;;;;;;5.91;43.46;102733.47;1735703;81;20133;-83
2022/03/21 03:46:01;;;;;;;;;;;;;;;5.81;43.85;102734.30;1743168;79;20162;-93
2022/03/21 03:48:28;;;;;;;;;;;;;;;5.86;43.40;102734.13;1732445;81;20131;-91
2022/03/21 03:50:54;;;;;;;;;;;;;;;6.00;42.95;102737.06;1734796;80;20100;-91
2022/03/21 03:53:19;;;;;;;;;;;;;;;6.03;42.91;102738.25;1733473;80;21991;-90
2022/03/21 03:55:45;;;;;;;;;;;;;;;6.05;43.21;102741.66;1733722;81;20188;-91
2022/03/21 03:58:10;;;;;;;;;;;;;;;6.00;43.19;102741.47;1735923;80;20123;-94
2022/03/21 04:00:36;;;;;;;;;;;;;;;5.99;43.20;102740.59;1733664;81;20109;-90
2022/03/21 04:05:45;;;;;;;;;;;;;;;5.51;44.30;102746.83;1730703;81;20130;-90
2022/03/21 04:08:11;;;;;;;;;;;;;;;5.52;44.39;102740.69;1734924;81;20572;-92
2022/03/21 04:10:38;;;;;;;;;;;;;;;5.61;43.76;102729.84;1733522;81;20195;-87
2022/03/21 04:13:04;;;;;;;;;;;;;;;5.70;43.48;102733.41;1737499;80;20234;-89
2022/03/21 04:15:30;;;;;;;;;;;;;;;5.74;43.44;102725.80;1737261;81;20476;-89
2022/03/21 04:17:59;;;;;;;;;;;;;;;5.80;43.13;102723.88;1739680;80;21017;-92
2022/03/21 04:20:27;;;;;;;;;;;;;;;5.83;43.03;102724.59;1740185;81;20149;-86
2022/03/21 04:22:55;;;;;;;;;;;;;;;5.85;42.86;102728.47;1702374;81;20198;-90
2022/03/21 04:25:22;;;;;;;;;;;;;;;5.89;42.80;102724.82;1737434;81;20210;-86
2022/03/21 04:27:50;;;;;;;;;;;;;;;5.91;42.83;102730.84;1728455;81;20197;-87
2022/03/21 04:30:18;;;;;;;;;;;;;;;5.92;42.82;102731.25;1737515;81;21075;-91
2022/03/21 04:32:48;;;;;;;;;;;;;;;5.92;42.76;102731.25;1735673;81;20159;-83
2022/03/21 04:35:16;;;;;;;;;;;;;;;5.92;42.71;102736.50;1738115;81;20156;-87
2022/03/21 04:37:42;;;;;;;;;;;;;;;5.93;42.57;102736.88;1741378;81;20193;-94
2022/03/21 04:40:08;;;;;;;;;;;;;;;5.94;42.65;102738.13;1742593;81;20162;-89
2022/03/21 04:42:34;;;;;;;;;;;;;;;5.93;42.76;102741.68;1741883;81;21102;-92
2022/03/21 04:45:00;;;;;;;;;;;;;;;5.95;42.73;102741.62;1745499;80;20199;-92
2022/03/21 04:47:26;;;;;;;;;;;;;;;5.96;42.62;102737.22;1738735;81;20242;-94
2022/03/21 04:49:51;;;;;;;;;;;;;;;5.88;42.83;102745.39;1739805;81;20472;-81
2022/03/21 04:52:17;;;;;;;;;;;;;;;5.83;42.94;102747.35;1736158;81;20214;-89
2022/03/21 04:54:42;;;;;;;;;;;;;;;5.85;42.75;102741.11;1738302;81;21161;-84
2022/03/21 04:57:08;;;;;;;;;;;;;;;5.77;43.14;102748.91;1731776;81;20326;-81
2022/03/21 04:59:34;;;;;;;;;;;;;;;5.49;44.08;102753.91;1742857;81;20300;-89
2022/03/21 05:02:00;;;;;;;;;;;;;;;5.36;44.31;102751.75;1737007;80;20175;-82
2022/03/21 05:04:26;;;;;;;;;;;;;;;5.33;44.26;102755.80;1746982;81;20157;-90
2022/03/21 05:06:54;;;;;;;;;;;;;;;5.25;44.27;102751.31;1740812;81;21931;-89
2022/03/21 05:09:20;;;;;;;;;;;;;;;5.30;44.29;102750.67;1748227;80;20089;-89
2022/03/21 05:11:45;;;;;;;;;;;;;;;5.20;44.36;102750.61;1736799;80;20403;-90
2022/03/21 05:14:11;;;;;;;;;;;;;;;5.22;44.53;102757.97;1748135;81;20118;-84
2022/03/21 05:16:37;;;;;;;;;;;;;;;5.18;44.72;102755.05;1745310;81;20163;-86
2022/03/21 05:19:05;;;;;;;;;;;;;;;5.14;44.81;102750.83;1745432;81;21338;-90
2022/03/21 05:21:32;;;;;;;;;;;;;;;5.18;44.86;102757.67;1744913;80;20135;-86
2022/03/21 05:32:09;;;;;;;;;;;;;;;5.32;44.78;102760.62;1736069;80;20157;-87
2022/03/21 05:37:19;;;;;;;;;;;;;;;5.57;44.30;102764.94;1746229;81;20164;-81
2022/03/21 05:42:31;;;;;;;;;;;;;;;5.53;44.46;102762.91;1744479;81;20178;-89
2022/03/21 05:44:57;;;;;;;;;;;;;;;5.65;44.42;102761.56;1739349;81;21146;-82
2022/03/21 05:47:23;;;;;;;;;;;;;;;5.65;44.38;102761.56;1729218;82;20124;-86
2022/03/21 05:49:50;;;;;;;;;;;;;;;5.77;44.12;102762.86;1726171;81;20384;-81
2022/03/21 05:52:20;;;;;;;;;;;;;;;5.92;43.70;102760.94;1723945;82;20237;-82
2022/03/21 05:54:45;;;;;;;;;;;;;;;5.90;43.95;102766.72;1725308;81;20143;-88
2022/03/21 05:57:11;;;;;;;;;;;;;;;5.96;44.02;102759.04;1722606;82;21161;-90
2022/03/21 06:02:20;;;;;;;;;;;;;;;6.18;43.59;102765.61;1727496;81;20116;-82
2022/03/21 06:04:46;;;;;;;;;;;;;;;6.29;43.38;102769.98;1721440;81;20150;-82
2022/03/21 06:07:12;;;;;;;;;;;;;;;6.35;43.38;102768.84;1722737;82;20173;-86
2022/03/21 06:09:37;;;;;;;;;;;;;;;6.45;43.29;102774.12;1728637;81;21152;-87
2022/03/21 06:12:03;;;;;;;;;;;;;;;6.55;43.18;102772.42;1724501;81;20194;-87
2022/03/21 06:14:30;;;;;;;;;;;;;;;6.62;43.09;102771.25;1723353;82;20138;-90
2022/03/21 06:16:57;;;;;;;;;;;;;;;6.70;42.93;102769.61;1719746;82;20191;-85
2022/03/21 06:19:23;;;;;;;;;;;;;;;6.70;43.21;102769.14;1726948;82;20172;-89
2022/03/21 06:21:49;;;;;;;;;;;;;;;6.73;42.79;102768.17;1720026;82;21226;-88
2022/03/21 06:24:14;;;;;;;;;;;;;;;6.76;42.67;102768.87;1726588;81;20186;-90
2022/03/21 06:26:41;;;;;;;;;;;;;;;6.83;42.26;102775.55;1719774;81;20188;-88
2022/03/21 06:29:06;;;;;;;;;;;;;;;6.94;42.07;102769.83;1729441;81;20076;-84
2022/03/21 06:31:32;;;;;;;;;;;;;;;7.05;41.68;102770.66;1727076;81;20111;-86
2022/03/21 06:33:57;;;;;;;;;;;;;;;7.04;41.41;102766.80;1726264;82;21138;-85
2022/03/21 06:36:23;;;;;;;;;;;;;;;7.00;41.44;102773.97;1720740;82;20107;-87
2022/03/21 06:38:48;;;;;;;;;;;;;;;6.94;41.60;102769.83;1722336;82;20107;-88
2022/03/21 06:41:15;;;;;;;;;;;;;;;6.94;41.46;102777.70;1726238;82;20138;-87
2022/03/21 06:43:43;;;;;;;;;;;;;;;6.97;41.41;102776.73;1730508;81;20192;-84
2022/03/21 06:46:09;;;;;;;;;;;;;;;7.03;41.15;102772.98;1733088;80;21160;-83
2022/03/21 06:48:34;;;;;;;;;;;;;;;7.16;41.00;102780.70;1736252;81;20134;-84
2022/03/21 06:51:00;;;;;;;;;;;;;;;7.12;40.95;102781.30;1735131;82;20181;-84
2022/03/21 06:53:26;;;;;;;;;;;;;;;7.23;40.87;102786.55;1737366;82;20092;-87
2022/03/21 06:55:51;;;;;;;;;;;;;;;7.32;41.00;102783.03;1733525;82;20182;-90
2022/03/21 06:58:17;;;;;;;;;;;;;;;7.54;40.54;102780.27;1733572;82;21223;-89
2022/03/21 07:00:44;;;;;;;;;;;;;;;7.64;40.14;102785.09;1733678;81;20119;-88
2022/03/21 07:03:09;;;;;;;;;;;;;;;7.70;40.25;102782.17;1735173;81;20526;-89
2022/03/21 07:05:36;;;;;;;;;;;;;;;7.77;39.85;102782.29;1732665;81;20114;-88
2022/03/21 07:08:03;;;;;;;;;;;;;;;7.84;40.00;102786.31;1730714;81;20171;-90
2022/03/21 07:10:29;;;;;;;;;;;;;;;7.86;39.97;102792.81;1734210;81;21062;-86
2022/03/21 07:12:54;;;;;;;;;;;;;;;7.79;40.21;102790.95;1731954;81;20223;-86
2022/03/21 07:15:20;;;;;;;;;;;;;;;7.91;40.17;102790.37;1732017;82;20472;-86
2022/03/21 07:17:45;;;;;;;;;;;;;;;8.04;40.02;102788.46;1734650;82;21072;-84
2022/03/21 07:20:11;;;;;;;;;;;;;;;8.04;39.78;102791.09;1734472;82;20154;-86
2022/03/21 07:22:37;;;;;;;;;;;;;;;8.06;39.88;102794.49;1726014;82;21056;-85
2022/03/21 07:25:06;;;;;;;;;;;;;;;8.08;40.10;102794.81;1730562;81;20257;-86
2022/03/21 07:27:31;;;;;;;;;;;;;;;8.16;40.06;102797.08;1735737;81;20516;-84
2022/03/21 07:29:57;;;;;;;;;;;;;;;8.15;40.28;102798.47;1732956;82;20181;-88
2022/03/21 07:32:23;;;;;;;;;;;;;;;8.24;40.31;102794.07;1732096;82;20154;-87
2022/03/21 07:34:48;;;;;;;;;;;;;;;8.30;40.56;102792.89;1734519;82;21086;-92
2022/03/21 07:37:14;;;;;;;;;;;;;;;8.38;40.40;102794.70;1737210;82;20162;-91
2022/03/21 07:39:39;;;;;;;;;;;;;;;8.41;40.36;102794.55;1732889;82;20131;-85
2022/03/21 07:42:07;;;;;;;;;;;;;;;8.43;40.42;102792.69;1735139;82;20696;-91
2022/03/21 07:47:17;;;;;;;;;;;;;;;8.65;40.30;102799.53;1730212;82;20151;-87
2022/03/21 07:49:46;;;;;;;;;;;;;;;8.77;40.18;102798.91;1732137;82;20127;-90
2022/03/21 07:52:11;;;;;;;;;;;;;;;8.83;40.18;102793.33;1728740;81;20142;-90
2022/03/21 07:54:36;;;;;;;;;;;;;;;8.88;40.08;102799.20;1732598;82;20200;-87
2022/03/21 07:57:03;;;;;;;;;;;;;;;8.98;40.29;102795.16;1733346;82;20186;-89
2022/03/21 07:59:28;;;;;;;;;;;;;;;9.08;40.28;102796.84;1735263;81;21167;-87
2022/03/21 08:01:54;;;;;;;;;;;;;;;9.19;40.00;102793.64;1735196;82;20735;-90
2022/03/21 08:04:20;;;;;;;;;;;;;;;9.23;39.69;102795.19;1734198;81;20280;-90
2022/03/21 08:06:47;;;;;;;;;;;;;;;9.37;39.54;102798.41;1736980;82;20720;-90
2022/03/21 08:09:21;;;;;;;;;;;;;;;9.50;39.50;102793.30;1736687;81;20163;-92
2022/03/21 08:11:48;;;;;;;;;;;;;;;9.58;38.98;102792.88;1727425;81;20630;-91
2022/03/21 08:14:16;;;;;;;;;;;;;;;9.73;38.47;102791.20;1731296;82;20460;-87
2022/03/21 08:16:42;;;;;;;;;;;;;;;9.78;38.45;102789.14;1738388;82;20118;-91
2022/03/21 08:19:08;;;;;;;;;;;;;;;9.92;38.21;102790.53;1733157;81;20596;-87
2022/03/21 08:21:34;;;;;;;;;;;;;;;10.04;37.77;102792.48;1732152;82;20186;-91
2022/03/21 08:24:00;;;;;;;;;;;;;;;10.20;37.60;102792.92;1731902;81;21101;-89
2022/03/21 08:26:27;;;;;;;;;;;;;;;10.34;37.27;102792.99;1730112;82;20149;-90
2022/03/21 08:28:52;;;;;;;;;;;;;;;10.46;36.81;102791.44;1734338;82;20140;-92
2022/03/21 08:31:21;;;;;;;;;;;;;;;10.59;36.72;102792.39;1735856;81;20172;-90
2022/03/21 08:33:47;;;;;;;;;;;;;;;10.60;36.33;102786.66;1728950;82;20481;-90
2022/03/21 08:36:13;;;;;;;;;;;;;;;10.74;36.40;102790.64;1739586;81;21008;-89
2022/03/21 08:38:39;;;;;;;;;;;;;;;10.75;35.72;102781.78;1731396;82;20170;-89
2022/03/21 08:41:05;;;;;;;;;;;;;;;10.88;36.20;102783.69;1731724;82;20200;-91
2022/03/21 08:43:30;;;;;;;;;;;;;;;10.95;35.40;102779.70;1733528;82;20376;-90
2022/03/21 08:45:56;;;;;;;;;;;;;;;10.96;34.27;102774.32;1728049;81;20147;-84
2022/03/21 08:49:23;;;;;;;;;;;;;;;11.03;33.93;102777.46;1722423;82;22018;-91
2022/03/21 08:50:50;;;;;;;;;;;;;;;11.07;33.77;102777.62;1716892;81;20191;-87
2022/03/21 08:53:16;;;;;;;;;;;;;;;11.13;33.49;102771.97;1723321;81;20174;-90
2022/03/21 08:55:41;;;;;;;;;;;;;;;11.18;33.02;102765.55;1723395;81;20310;-93
2022/03/21 08:58:07;;;;;;;;;;;;;;;11.23;32.71;102760.81;1723136;82;20183;-89
2022/03/21 09:00:35;;;;;;;;;;;;;;;11.31;33.04;102768.66;1719042;81;21835;-91
2022/03/21 09:03:01;;;;;;;;;;;;;;;11.33;32.21;102765.91;1722165;82;20170;-84
2022/03/21 09:05:27;;;;;;;;;;;;;;;11.39;32.08;102765.53;1725999;82;20225;-87
2022/03/21 09:07:53;;;;;;;;;;;;;;;11.44;32.38;102767.40;1721581;82;20995;-88
2022/03/21 09:10:20;;;;;;;;;;;;;;;11.49;32.04;102757.84;1718987;81;20168;-89
2022/03/21 09:12:47;;;;;;;;;;;;;;;11.52;31.85;102758.14;1720120;82;21260;-93
2022/03/21 09:15:13;;;;;;;;;;;;;;;11.56;31.38;102759.16;1724566;81;20142;-89
2022/03/21 09:17:39;;;;;;;;;;;;;;;11.58;31.22;102763.04;1727561;81;20135;-92
2022/03/21 09:20:07;;;;;;;;;;;;;;;11.68;31.16;102765.45;1723106;81;20178;-92
2022/03/21 09:22:33;;;;;;;;;;;;;;;11.78;31.08;102765.23;1725293;82;20183;-91
2022/03/21 09:25:00;;;;;;;;;;;;;;;11.84;31.07;102766.17;1718759;82;21136;-91
2022/03/21 09:27:28;;;;;;;;;;;;;;;11.88;31.27;102766.80;1729113;82;20158;-90
2022/03/21 09:29:54;;;;;;;;;;;;;;;11.94;30.28;102768.25;1727193;82;20179;-90
2022/03/21 09:32:22;;;;;;;;;;;;;;;11.97;30.06;102762.75;1725195;82;20163;-91
2022/03/21 09:34:49;;;;;;;;;;;;;;;12.04;30.27;102762.70;1723125;81;20203;-90
2022/03/21 09:37:15;;;;;;;;;;;;;;;12.11;30.12;102768.46;1726524;82;20154;-93
2022/03/21 09:39:41;;;;;;;;;;;;;;;12.20;29.98;102756.77;1721806;81;20201;-88
2022/03/21 09:42:09;;;;;;;;;;;;;;;12.23;29.76;102753.53;1722312;82;20179;-91
2022/03/21 09:44:34;;;;;;;;;;;;;;;12.22;29.66;102756.66;1723924;81;20167;-92
2022/03/21 09:48:08;;;;;;;;;;;;;;;12.28;29.43;102750.12;1734417;81;20182;-91
2022/03/21 09:49:30;;;;;;;;;;;;;;;12.42;29.46;102745.22;1744113;81;20144;-94
2022/03/21 09:51:56;;;;;;;;;;;;;;;12.53;29.39;102747.48;1743453;80;20121;-93
2022/03/21 09:54:21;;;;;;;;;;;;;;;12.63;28.99;102745.08;1741925;81;20647;-84
2022/03/21 09:56:47;;;;;;;;;;;;;;;12.77;29.07;102740.14;1743694;80;20150;-91
2022/03/21 09:59:12;;;;;;;;;;;;;;;12.77;28.65;102735.30;1746288;80;20169;-86
2022/03/21 10:01:38;;;;;;;;;;;;;;;12.87;28.70;102733.71;1747791;81;21135;-89
2022/03/21 10:04:06;;;;;;;;;;;;;;;12.92;27.22;102735.06;1722922;81;20201;-88
2022/03/21 10:06:35;;;;;;;;;;;;;;;12.99;27.27;102729.33;1739460;81;20201;-91
2022/03/21 10:09:05;;;;;;;;;;;;;;;13.10;26.93;102726.78;1736069;81;20196;-93
2022/03/21 10:11:32;;;;;;;;;;;;;;;13.10;26.93;102725.45;1742680;81;20182;-82
2022/03/21 10:14:01;;;;;;;;;;;;;;;13.12;26.65;102722.20;1752377;80;21215;-91
2022/03/21 10:16:29;;;;;;;;;;;;;;;13.24;26.63;102710.72;1749260;81;20246;-84
2022/03/21 10:18:59;;;;;;;;;;;;;;;13.32;26.14;102717.28;1741760;81;20156;-88
2022/03/21 10:21:26;;;;;;;;;;;;;;;13.32;25.73;102711.98;1739520;80;20229;-87
2022/03/21 10:24:02;;;;;;;;;;;;;;;13.42;25.60;102707.71;1741498;81;20137;-90
2022/03/21 10:26:32;;;;;;;;;;;;;;;13.52;25.79;102708.75;1743577;80;21090;-91
2022/03/21 10:28:59;;;;;;;;;;;;;;;13.40;25.49;102704.33;1743296;80;20124;-92
2022/03/21 10:31:41;;;;;;;;;;;;;;;13.49;25.71;102698.84;1738507;81;20167;-86
2022/03/21 10:34:09;;;;;;;;;;;;;;;13.55;25.38;102693.92;1732278;81;20277;-85
2022/03/21 10:36:36;;;;;;;;;;;;;;;13.61;25.27;102694.80;1747815;81;20202;-85
2022/03/21 10:39:09;;;;;;;;;;;;;;;13.67;25.28;102693.97;1745265;81;21215;-85
2022/03/21 10:41:35;;;;;;;;;;;;;;;13.77;25.75;102696.31;1755266;80;20213;-81
2022/03/21 10:44:02;;;;;;;;;;;;;;;13.75;25.40;102680.95;1750336;81;20201;-85
2022/03/21 10:46:27;;;;;;;;;;;;;;;13.91;25.07;102685.49;1752827;80;20159;-86
2022/03/21 10:49:08;;;;;;;;;;;;;;;13.92;24.77;102683.67;1738950;81;37324;-87
2022/03/21 10:51:53;;;;;;;;;;;;;;;14.02;25.28;102690.48;1755429;80;21041;-88
2022/03/21 10:54:48;;;;;;;;;;;;;;;14.09;25.05;102679.73;1752836;80;20194;-89
2022/03/21 10:57:27;;;;;;;;;;;;;;;14.15;24.42;102677.48;1759881;80;20103;-83
2022/03/21 11:00:14;;;;;;;;;;;;;;;14.22;24.44;102673.86;1756150;80;20732;-86
2022/03/21 11:03:14;;;;;;;;;;;;;;;14.35;24.75;102670.60;1753941;80;20124;-86
2022/03/21 11:05:47;;;;;;;;;;;;;;;14.45;24.58;102664.57;1760879;80;20476;-83
2022/03/21 11:08:15;;;;;;;;;;;;;;;14.49;24.49;102656.23;1751241;81;21024;-83
2022/03/21 11:10:41;;;;;;;;;;;;;;;14.54;24.39;102654.55;1755867;80;20132;-86
2022/03/21 11:13:07;;;;;;;;;;;;;;;14.65;24.17;102654.60;1759177;80;20114;-89
2022/03/21 11:15:35;;;;;;;;;;;;;;;14.71;23.33;102654.12;1756465;80;20159;-87
2022/03/21 11:18:08;;;;;;;;;;;;;;;14.77;23.18;102651.92;1762218;81;21226;-87
2022/03/21 11:20:35;;;;;;;;;;;;;;;14.95;22.97;102653.12;1757365;80;20139;-88
2022/03/21 11:23:01;;;;;;;;;;;;;;;15.01;22.82;102645.14;1753622;80;20461;-84
2022/03/21 11:25:32;;;;;;;;;;;;;;;15.12;22.41;102642.44;1770010;80;20339;-90
2022/03/21 11:28:12;;;;;;;;;;;;;;;15.08;22.35;102639.16;1766538;80;20108;-87
2022/03/21 11:31:04;;;;;;;;;;;;;;;15.20;22.75;102641.82;1760180;80;20895;-84
2022/03/21 11:33:45;;;;;;;;;;;;;;;15.46;22.95;102634.81;1762636;80;20158;-87
2022/03/21 11:36:11;;;;;;;;;;;;;;;15.54;22.20;102630.55;1761083;80;20141;-90
2022/03/21 11:38:45;;;;;;;;;;;;;;;15.49;21.45;102627.44;1761815;80;20166;-85
2022/03/21 11:41:22;;;;;;;;;;;;;;;15.49;21.47;102630.56;1762106;79;20118;-87
2022/03/21 11:44:08;;;;;;;;;;;;;;;15.66;21.52;102623.84;1767263;79;21054;-85
2022/03/21 11:46:36;;;;;;;;;;;;;;;15.55;21.34;102617.61;1753655;80;20160;-86
2022/03/21 11:49:25;;;;;;;;;;;;;;;15.53;21.10;102616.03;1737677;81;20612;-91
2022/03/21 11:51:55;;;;;;;;;;;;;;;15.57;21.16;102607.66;1738209;81;20179;-92
2022/03/21 11:54:30;;;;;;;;;;;;;;;15.69;21.47;102603.13;1746982;81;20504;-91
2022/03/21 11:57:00;;;;;;;;;;;;;;;15.67;21.25;102595.73;1742279;81;21196;-91
2022/03/21 11:59:43;;;;;;;;;;;;;;;15.63;21.17;102598.33;1741542;81;20419;-92
2022/03/21 12:02:11;;;;;;;;;;;;;;;15.73;21.32;102591.23;1735654;81;20185;-88
2022/03/21 12:04:39;;;;;;;;;;;;;;;15.71;21.03;102587.86;1743780;81;21297;-86
2022/03/21 12:07:17;;;;;;;;;;;;;;;15.69;21.21;102586.28;1740834;81;20175;-86
2022/03/21 12:09:47;;;;;;;;;;;;;;;15.82;21.47;102581.65;1744906;81;21059;-92
2022/03/21 12:12:13;;;;;;;;;;;;;;;16.00;21.27;102577.88;1721499;81;20143;-86
2022/03/21 12:14:44;;;;;;;;;;;;;;;16.05;21.54;102571.68;1743358;81;20186;-87
2022/03/21 12:17:16;;;;;;;;;;;;;;;16.04;21.32;102568.65;1748887;81;20121;-88
2022/03/21 12:19:51;;;;;;;;;;;;;;;16.27;21.71;102556.48;1743502;81;20125;-91
2022/03/21 12:22:36;;;;;;;;;;;;;;;16.23;21.14;102563.05;1741713;81;21181;-91
2022/03/21 12:25:22;;;;;;;;;;;;;;;16.23;21.21;102552.39;1746537;80;20113;-85
2022/03/21 12:27:55;;;;;;;;;;;;;;;16.22;20.93;102553.36;1745981;81;20220;-91
2022/03/21 12:30:27;;;;;;;;;;;;;;;16.28;20.94;102556.82;1743289;81;20540;-91
2022/03/21 12:32:54;;;;;;;;;;;;;;;16.50;21.29;102540.62;1753658;81;20154;-85
2022/03/21 12:35:46;;;;;;;;;;;;;;;16.62;20.93;102545.34;1743590;80;21032;-84
2022/03/21 12:38:18;;;;;;;;;;;;;;;16.75;20.86;102534.90;1744666;80;20158;-84
2022/03/21 12:40:59;;;;;;;;;;;;;;;16.73;20.68;102537.70;1747870;80;20099;-87
2022/03/21 12:43:42;;;;;;;;;;;;;;;16.96;20.87;102526.81;1738620;80;20091;-86
2022/03/21 12:46:11;;;;;;;;;;;;;;;17.13;20.61;102522.10;1753335;78;20108;-83
2022/03/21 12:48:43;;;;;;;;;;;;;;;17.32;20.73;102523.08;1726609;82;21078;-86
2022/03/21 12:51:09;;;;;;;;;;;;;;;17.44;20.82;102522.44;1722729;81;20104;-84
2022/03/21 12:53:46;;;;;;;;;;;;;;;17.48;20.43;102520.67;1727278;81;20201;-83
2022/03/21 12:56:13;;;;;;;;;;;;;;;17.63;20.59;102518.88;1723852;81;20131;-84
2022/03/21 12:58:42;;;;;;;;;;;;;;;17.69;20.46;102517.80;1726783;82;20156;-84
2022/03/21 13:01:07;;;;;;;;;;;;;;;17.68;20.50;102517.94;1729810;81;20173;-83
2022/03/21 13:03:32;;;;;;;;;;;;;;;17.97;20.57;102514.37;1726418;82;20162;-85
2022/03/21 13:11:41;;;;;;;;;;;;;;;18.24;20.08;102503.70;1720222;82;20104;-88
2022/03/21 13:14:17;;;;;;;;;;;;;;;18.36;20.39;102504.82;1719597;81;20171;-85
2022/03/21 13:16:51;;;;;;;;;;;;;;;18.31;20.72;102503.92;1722584;81;20165;-89